sensor_id;sensor_type;location;lat;lon;timestamp;pressure;altitude;pressure_sealevel;temperature;humidity
19210;BME280;9738;51.654;14.238;2022-07-12T00:02:18;101078.94;;;12.63;91.69
19210;BME280;9738;51.654;14.238;2022-07-12T00:04:44;101081.22;;;12.58;92.84
19210;BME280;9738;51.654;14.238;2022-07-12T00:07:11;101084.34;;;12.53;93.94
19210;BME280;9738;51.654;14.238;2022-07-12T00:09:36;101080.56;;;12.46;95.01
19210;BME280;9738;51.654;14.238;2022-07-12T00:12:02;101084.56;;;12.42;95.83
19210;BME280;9738;51.654;14.238;2022-07-12T00:14:29;101080.63;;;12.36;96.15
19210;BME280;9738;51.654;14.238;2022-07-12T00:16:54;101078.22;;;12.33;97.01
19210;BME280;9738;51.654;14.238;2022-07-12T00:19:20;101085.00;;;12.28;98.07
19210;BME280;9738;51.654;14.238;2022-07-12T00:21:47;101080.13;;;12.23;98.58
19210;BME280;9738;51.654;14.238;2022-07-12T00:24:12;101081.22;;;12.21;99.29
19210;BME280;9738;51.654;14.238;2022-07-12T00:26:38;101077.03;;;12.18;99.61
19210;BME280;9738;51.654;14.238;2022-07-12T00:29:04;101083.53;;;12.15;100.00
19210;BME280;9738;51.654;14.238;2022-07-12T00:31:32;101092.69;;;12.13;100.00
19210;BME280;9738;51.654;14.238;2022-07-12T00:33:57;101085.94;;;12.09;100.00
19210;BME280;9738;51.654;14.238;2022-07-12T00:36:24;101095.94;;;12.07;100.00
19210;BME280;9738;51.654;14.238;2022-07-12T00:38:49;101088.34;;;12.02;100.00
19210;BME280;9738;51.654;14.238;2022-07-12T00:41:15;101101.03;;;12.00;100.00
19210;BME280;9738;51.654;14.238;2022-07-12T00:43:42;101099.50;;;11.98;100.00
19210;BME280;9738;51.654;14.238;2022-07-12T00:46:08;101104.13;;;11.96;100.00
19210;BME280;9738;51.654;14.238;2022-07-12T00:48:35;101103.44;;;11.94;100.00
19210;BME280;9738;51.654;14.238;2022-07-12T00:51:02;101110.06;;;11.89;100.00
19210;BME280;9738;51.654;14.238;2022-07-12T00:53:28;101109.38;;;11.87;100.00
19210;BME280;9738;51.654;14.238;2022-07-12T00:55:55;101101.63;;;11.84;100.00
19210;BME280;9738;51.654;14.238;2022-07-12T00:58:23;101109.50;;;11.86;100.00
19210;BME280;9738;51.654;14.238;2022-07-12T01:00:49;101114.72;;;11.87;100.00
19210;BME280;9738;51.654;14.238;2022-07-12T01:03:15;101114.44;;;11.90;100.00
19210;BME280;9738;51.654;14.238;2022-07-12T01:05:42;101116.81;;;11.94;100.00
19210;BME280;9738;51.654;14.238;2022-07-12T01:08:08;101118.94;;;12.00;100.00
19210;BME280;9738;51.654;14.238;2022-07-12T01:10:35;101112.72;;;12.09;100.00
19210;BME280;9738;51.654;14.238;2022-07-12T01:13:02;101107.47;;;12.17;100.00
19210;BME280;9738;51.654;14.238;2022-07-12T01:15:28;101108.44;;;12.26;100.00
19210;BME280;9738;51.654;14.238;2022-07-12T01:17:55;101111.38;;;12.32;100.00
19210;BME280;9738;51.654;14.238;2022-07-12T01:20:23;101101.66;;;12.31;100.00
19210;BME280;9738;51.654;14.238;2022-07-12T01:22:56;101112.66;;;12.28;100.00
19210;BME280;9738;51.654;14.238;2022-07-12T01:25:26;101109.28;;;12.26;100.00
19210;BME280;9738;51.654;14.238;2022-07-12T01:27:52;101112.94;;;12.25;100.00
19210;BME280;9738;51.654;14.238;2022-07-12T01:30:19;101113.78;;;12.26;100.00
19210;BME280;9738;51.654;14.238;2022-07-12T01:32:45;101107.44;;;12.27;100.00
19210;BME280;9738;51.654;14.238;2022-07-12T01:35:12;101112.66;;;12.28;100.00
19210;BME280;9738;51.654;14.238;2022-07-12T01:37:42;101108.00;;;12.30;100.00
19210;BME280;9738;51.654;14.238;2022-07-12T01:40:13;101113.34;;;12.30;100.00
19210;BME280;9738;51.654;14.238;2022-07-12T01:42:40;101116.72;;;12.32;100.00
19210;BME280;9738;51.654;14.238;2022-07-12T01:45:07;101117.44;;;12.34;100.00
19210;BME280;9738;51.654;14.238;2022-07-12T01:47:34;101116.28;;;12.37;100.00
19210;BME280;9738;51.654;14.238;2022-07-12T01:50:01;101112.63;;;12.38;100.00
19210;BME280;9738;51.654;14.238;2022-07-12T01:52:28;101117.56;;;12.42;100.00
19210;BME280;9738;51.654;14.238;2022-07-12T01:54:56;101115.56;;;12.44;100.00
19210;BME280;9738;51.654;14.238;2022-07-12T01:57:23;101124.16;;;12.48;100.00
19210;BME280;9738;51.654;14.238;2022-07-12T01:59:50;101122.00;;;12.52;100.00
19210;BME280;9738;51.654;14.238;2022-07-12T02:02:17;101120.75;;;12.56;100.00
19210;BME280;9738;51.654;14.238;2022-07-12T02:04:44;101124.81;;;12.60;100.00
19210;BME280;9738;51.654;14.238;2022-07-12T02:07:09;101124.66;;;12.61;100.00
19210;BME280;9738;51.654;14.238;2022-07-12T02:09:36;101133.41;;;12.63;100.00
19210;BME280;9738;51.654;14.238;2022-07-12T02:12:02;101127.88;;;12.65;100.00
19210;BME280;9738;51.654;14.238;2022-07-12T02:14:28;101125.19;;;12.65;100.00
19210;BME280;9738;51.654;14.238;2022-07-12T02:16:54;101128.59;;;12.67;100.00
19210;BME280;9738;51.654;14.238;2022-07-12T02:19:20;101130.56;;;12.65;100.00
19210;BME280;9738;51.654;14.238;2022-07-12T02:21:46;101123.50;;;12.64;100.00
19210;BME280;9738;51.654;14.238;2022-07-12T02:24:12;101127.19;;;12.63;100.00
19210;BME280;9738;51.654;14.238;2022-07-12T02:26:38;101120.84;;;12.64;100.00
19210;BME280;9738;51.654;14.238;2022-07-12T02:29:05;101131.56;;;12.64;100.00
19210;BME280;9738;51.654;14.238;2022-07-12T02:31:31;101131.72;;;12.62;100.00
19210;BME280;9738;51.654;14.238;2022-07-12T02:33:57;101127.19;;;12.63;100.00
19210;BME280;9738;51.654;14.238;2022-07-12T02:36:23;101125.66;;;12.60;100.00
19210;BME280;9738;51.654;14.238;2022-07-12T02:38:50;101134.53;;;12.61;100.00
19210;BME280;9738;51.654;14.238;2022-07-12T02:41:16;101124.50;;;12.63;100.00
19210;BME280;9738;51.654;14.238;2022-07-12T02:43:42;101124.34;;;12.64;100.00
19210;BME280;9738;51.654;14.238;2022-07-12T02:46:12;101125.91;;;12.67;100.00
19210;BME280;9738;51.654;14.238;2022-07-12T02:48:39;101121.25;;;12.69;100.00
19210;BME280;9738;51.654;14.238;2022-07-12T02:51:06;101120.09;;;12.71;100.00
19210;BME280;9738;51.654;14.238;2022-07-12T02:53:34;101128.53;;;12.77;100.00
19210;BME280;9738;51.654;14.238;2022-07-12T02:56:00;101122.03;;;12.79;100.00
19210;BME280;9738;51.654;14.238;2022-07-12T02:58:26;101123.00;;;12.78;100.00
19210;BME280;9738;51.654;14.238;2022-07-12T03:00:52;101121.88;;;12.81;100.00
19210;BME280;9738;51.654;14.238;2022-07-12T03:03:18;101125.25;;;12.83;100.00
19210;BME280;9738;51.654;14.238;2022-07-12T03:05:44;101122.41;;;12.84;100.00
19210;BME280;9738;51.654;14.238;2022-07-12T03:08:11;101121.44;;;12.85;100.00
19210;BME280;9738;51.654;14.238;2022-07-12T03:10:38;101127.34;;;12.89;100.00
19210;BME280;9738;51.654;14.238;2022-07-12T03:13:05;101121.69;;;12.92;100.00
19210;BME280;9738;51.654;14.238;2022-07-12T03:15:32;101125.91;;;12.94;100.00
19210;BME280;9738;51.654;14.238;2022-07-12T03:17:59;101123.63;;;12.99;100.00
19210;BME280;9738;51.654;14.238;2022-07-12T03:20:25;101122.19;;;13.05;100.00
19210;BME280;9738;51.654;14.238;2022-07-12T03:22:51;101131.75;;;13.08;100.00
19210;BME280;9738;51.654;14.238;2022-07-12T03:25:20;101131.47;;;13.11;100.00
19210;BME280;9738;51.654;14.238;2022-07-12T03:27:46;101129.47;;;13.13;100.00
19210;BME280;9738;51.654;14.238;2022-07-12T03:30:13;101139.19;;;13.14;100.00
19210;BME280;9738;51.654;14.238;2022-07-12T03:32:39;101129.47;;;13.13;100.00
19210;BME280;9738;51.654;14.238;2022-07-12T03:35:06;101136.66;;;13.12;100.00
19210;BME280;9738;51.654;14.238;2022-07-12T03:37:46;101137.78;;;13.10;100.00
19210;BME280;9738;51.654;14.238;2022-07-12T03:40:14;101140.78;;;13.07;100.00
19210;BME280;9738;51.654;14.238;2022-07-12T03:42:42;101145.16;;;13.08;100.00
19210;BME280;9738;51.654;14.238;2022-07-12T03:45:08;101142.47;;;13.08;100.00
19210;BME280;9738;51.654;14.238;2022-07-12T03:47:34;101147.56;;;13.11;100.00
19210;BME280;9738;51.654;14.238;2022-07-12T03:50:03;101142.19;;;13.11;100.00
19210;BME280;9738;51.654;14.238;2022-07-12T03:52:31;101151.91;;;13.12;100.00
19210;BME280;9738;51.654;14.238;2022-07-12T03:54:57;101145.41;;;13.14;100.00
19210;BME280;9738;51.654;14.238;2022-07-12T03:57:24;101145.25;;;13.16;100.00
19210;BME280;9738;51.654;14.238;2022-07-12T03:59:52;101145.97;;;13.18;100.00
19210;BME280;9738;51.654;14.238;2022-07-12T04:02:18;101150.31;;;13.19;100.00
19210;BME280;9738;51.654;14.238;2022-07-12T04:04:44;101159.09;;;13.21;100.00
19210;BME280;9738;51.654;14.238;2022-07-12T04:07:10;101157.38;;;13.20;100.00
19210;BME280;9738;51.654;14.238;2022-07-12T04:09:36;101156.69;;;13.18;100.00
19210;BME280;9738;51.654;14.238;2022-07-12T04:12:03;101165.84;;;13.15;100.00
19210;BME280;9738;51.654;14.238;2022-07-12T04:14:29;101162.34;;;13.15;100.00
19210;BME280;9738;51.654;14.238;2022-07-12T04:16:56;101166.00;;;13.14;100.00
19210;BME280;9738;51.654;14.238;2022-07-12T04:19:22;101167.53;;;13.16;100.00
19210;BME280;9738;51.654;14.238;2022-07-12T04:21:58;101173.47;;;13.20;100.00
19210;BME280;9738;51.654;14.238;2022-07-12T04:24:24;101175.19;;;13.21;100.00
19210;BME280;9738;51.654;14.238;2022-07-12T04:26:51;101172.50;;;13.21;100.00
19210;BME280;9738;51.654;14.238;2022-07-12T04:29:17;101172.34;;;13.22;100.00
19210;BME280;9738;51.654;14.238;2022-07-12T04:31:44;101162.84;;;13.28;100.00
19210;BME280;9738;51.654;14.238;2022-07-12T04:34:09;101165.94;;;13.33;100.00
19210;BME280;9738;51.654;14.238;2022-07-12T04:36:35;101158.94;;;13.40;100.00
19210;BME280;9738;51.654;14.238;2022-07-12T04:39:03;101176.13;;;13.47;100.00
19210;BME280;9738;51.654;14.238;2022-07-12T04:41:28;101172.16;;;13.51;100.00
19210;BME280;9738;51.654;14.238;2022-07-12T04:43:54;101170.88;;;13.56;100.00
19210;BME280;9738;51.654;14.238;2022-07-12T04:46:21;101173.91;;;13.61;100.00
19210;BME280;9738;51.654;14.238;2022-07-12T04:48:46;101170.63;;;13.67;100.00
19210;BME280;9738;51.654;14.238;2022-07-12T04:51:12;101165.78;;;13.70;100.00
19210;BME280;9738;51.654;14.238;2022-07-12T04:53:41;101166.03;;;13.77;100.00
19210;BME280;9738;51.654;14.238;2022-07-12T04:56:06;101170.44;;;13.86;100.00
19210;BME280;9738;51.654;14.238;2022-07-12T04:58:32;101174.91;;;13.95;100.00
19210;BME280;9738;51.654;14.238;2022-07-12T05:00:58;101168.75;;;14.03;100.00
19210;BME280;9738;51.654;14.238;2022-07-12T05:03:24;101168.97;;;14.10;100.00
19210;BME280;9738;51.654;14.238;2022-07-12T05:05:54;101175.25;;;14.18;100.00
19210;BME280;9738;51.654;14.238;2022-07-12T05:08:21;101183.69;;;14.23;100.00
19210;BME280;9738;51.654;14.238;2022-07-12T05:10:47;101176.00;;;14.28;100.00
19210;BME280;9738;51.654;14.238;2022-07-12T05:13:12;101184.94;;;14.37;100.00
19210;BME280;9738;51.654;14.238;2022-07-12T05:15:39;101186.03;;;14.44;100.00
19210;BME280;9738;51.654;14.238;2022-07-12T05:18:05;101188.78;;;14.52;100.00
19210;BME280;9738;51.654;14.238;2022-07-12T05:20:31;101190.50;;;14.62;100.00
19210;BME280;9738;51.654;14.238;2022-07-12T05:22:57;101190.25;;;14.73;100.00
19210;BME280;9738;51.654;14.238;2022-07-12T05:25:23;101185.75;;;14.81;100.00
19210;BME280;9738;51.654;14.238;2022-07-12T05:27:49;101188.31;;;14.91;100.00
19210;BME280;9738;51.654;14.238;2022-07-12T05:30:15;101182.97;;;14.99;100.00
19210;BME280;9738;51.654;14.238;2022-07-12T05:32:41;101189.75;;;15.11;100.00
19210;BME280;9738;51.654;14.238;2022-07-12T05:35:07;101189.28;;;15.24;100.00
19210;BME280;9738;51.654;14.238;2022-07-12T05:37:33;101192.72;;;15.43;100.00
19210;BME280;9738;51.654;14.238;2022-07-12T05:39:59;101197.81;;;15.62;100.00
19210;BME280;9738;51.654;14.238;2022-07-12T05:42:25;101190.94;;;15.84;99.63
19210;BME280;9738;51.654;14.238;2022-07-12T05:44:51;101191.66;;;16.10;98.73
19210;BME280;9738;51.654;14.238;2022-07-12T05:47:17;101201.41;;;16.36;96.33
19210;BME280;9738;51.654;14.238;2022-07-12T05:49:43;101190.41;;;16.62;95.62
19210;BME280;9738;51.654;14.238;2022-07-12T05:52:09;101202.31;;;16.84;91.72
19210;BME280;9738;51.654;14.238;2022-07-12T05:54:53;101208.28;;;17.10;82.12
19210;BME280;9738;51.654;14.238;2022-07-12T05:57:20;101207.47;;;17.41;80.76
19210;BME280;9738;51.654;14.238;2022-07-12T05:59:45;101207.31;;;17.73;76.96
19210;BME280;9738;51.654;14.238;2022-07-12T06:02:11;101200.25;;;17.95;75.45
19210;BME280;9738;51.654;14.238;2022-07-12T06:04:37;101205.59;;;18.18;74.47
19210;BME280;9738;51.654;14.238;2022-07-12T06:07:03;101202.31;;;18.46;71.36
19210;BME280;9738;51.654;14.238;2022-07-12T06:09:29;101211.91;;;18.71;67.70
19210;BME280;9738;51.654;14.238;2022-07-12T06:11:55;101212.75;;;18.86;68.28
19210;BME280;9738;51.654;14.238;2022-07-12T06:14:21;101213.47;;;18.95;65.47
19210;BME280;9738;51.654;14.238;2022-07-12T06:16:47;101205.16;;;19.11;65.70
19210;BME280;9738;51.654;14.238;2022-07-12T06:19:13;101209.16;;;19.30;64.30
19210;BME280;9738;51.654;14.238;2022-07-12T06:21:39;101215.91;;;19.56;63.95
19210;BME280;9738;51.654;14.238;2022-07-12T06:24:05;101221.72;;;19.89;63.18
19210;BME280;9738;51.654;14.238;2022-07-12T06:26:31;101223.84;;;20.15;60.54
19210;BME280;9738;51.654;14.238;2022-07-12T06:28:57;101219.19;;;20.30;60.21
19210;BME280;9738;51.654;14.238;2022-07-12T06:31:23;101217.09;;;20.54;61.93
19210;BME280;9738;51.654;14.238;2022-07-12T06:33:50;101215.53;;;20.72;58.51
19210;BME280;9738;51.654;14.238;2022-07-12T06:36:16;101214.50;;;20.73;58.74
19210;BME280;9738;51.654;14.238;2022-07-12T06:38:42;101215.91;;;20.97;59.72
19210;BME280;9738;51.654;14.238;2022-07-12T06:41:08;101219.34;;;21.13;60.53
19210;BME280;9738;51.654;14.238;2022-07-12T06:43:34;101223.78;;;21.27;56.00
19210;BME280;9738;51.654;14.238;2022-07-12T06:46:00;101209.44;;;21.33;55.21
19210;BME280;9738;51.654;14.238;2022-07-12T06:48:26;101225.75;;;21.40;55.01
19210;BME280;9738;51.654;14.238;2022-07-12T06:50:52;101217.00;;;21.44;53.41
19210;BME280;9738;51.654;14.238;2022-07-12T06:53:18;101217.84;;;21.45;53.81
19210;BME280;9738;51.654;14.238;2022-07-12T06:55:45;101205.72;;;21.47;53.65
19210;BME280;9738;51.654;14.238;2022-07-12T06:58:11;101209.88;;;21.50;52.47
19210;BME280;9738;51.654;14.238;2022-07-12T07:00:36;101214.97;;;21.66;54.04
19210;BME280;9738;51.654;14.238;2022-07-12T07:03:06;101210.63;;;21.98;53.80
19210;BME280;9738;51.654;14.238;2022-07-12T07:05:31;101206.66;;;22.07;51.42
19210;BME280;9738;51.654;14.238;2022-07-12T07:07:57;101210.41;;;22.06;49.14
19210;BME280;9738;51.654;14.238;2022-07-12T07:10:23;101202.72;;;22.17;51.30
19210;BME280;9738;51.654;14.238;2022-07-12T07:12:49;101214.22;;;22.12;49.67
19210;BME280;9738;51.654;14.238;2022-07-12T07:15:15;101214.00;;;22.20;50.38
19210;BME280;9738;51.654;14.238;2022-07-12T07:17:42;101211.50;;;22.38;50.14
19210;BME280;9738;51.654;14.238;2022-07-12T07:20:11;101205.66;;;22.48;48.51
19210;BME280;9738;51.654;14.238;2022-07-12T07:22:38;101208.34;;;22.61;49.64
19210;BME280;9738;51.654;14.238;2022-07-12T07:25:05;101213.19;;;22.59;47.19
19210;BME280;9738;51.654;14.238;2022-07-12T07:27:31;101205.03;;;22.53;48.95
19210;BME280;9738;51.654;14.238;2022-07-12T07:29:57;101207.09;;;22.57;47.59
19210;BME280;9738;51.654;14.238;2022-07-12T07:32:42;101199.75;;;22.64;47.97
19210;BME280;9738;51.654;14.238;2022-07-12T07:35:08;101203.31;;;22.72;46.25
19210;BME280;9738;51.654;14.238;2022-07-12T07:37:34;101206.66;;;22.74;44.43
19210;BME280;9738;51.654;14.238;2022-07-12T07:40:00;101195.97;;;22.79;45.33
19210;BME280;9738;51.654;14.238;2022-07-12T07:42:26;101193.25;;;22.79;44.73
19210;BME280;9738;51.654;14.238;2022-07-12T07:44:52;101197.84;;;22.91;45.38
19210;BME280;9738;51.654;14.238;2022-07-12T07:47:19;101194.19;;;23.17;43.65
19210;BME280;9738;51.654;14.238;2022-07-12T07:49:44;101199.59;;;23.31;43.33
19210;BME280;9738;51.654;14.238;2022-07-12T07:52:10;101197.22;;;23.41;42.52
19210;BME280;9738;51.654;14.238;2022-07-12T07:54:36;101199.25;;;23.52;42.59
19210;BME280;9738;51.654;14.238;2022-07-12T07:57:02;101197.31;;;23.66;40.79
19210;BME280;9738;51.654;14.238;2022-07-12T07:59:28;101201.25;;;23.77;40.26
19210;BME280;9738;51.654;14.238;2022-07-12T08:01:55;101206.06;;;23.81;41.03
19210;BME280;9738;51.654;14.238;2022-07-12T08:04:27;101203.00;;;23.96;41.06
19210;BME280;9738;51.654;14.238;2022-07-12T08:06:54;101210.34;;;23.95;40.66
19210;BME280;9738;51.654;14.238;2022-07-12T08:09:22;101210.13;;;23.97;42.05
19210;BME280;9738;51.654;14.238;2022-07-12T08:11:47;101199.09;;;24.10;40.62
19210;BME280;9738;51.654;14.238;2022-07-12T08:14:14;101198.50;;;24.08;41.74
19210;BME280;9738;51.654;14.238;2022-07-12T08:16:39;101210.78;;;24.17;41.35
19210;BME280;9738;51.654;14.238;2022-07-12T08:19:05;101207.47;;;24.15;41.63
19210;BME280;9738;51.654;14.238;2022-07-12T08:21:32;101199.63;;;24.25;39.90
19210;BME280;9738;51.654;14.238;2022-07-12T08:23:58;101201.22;;;24.40;39.48
19210;BME280;9738;51.654;14.238;2022-07-12T08:26:24;101202.97;;;24.27;41.73
19210;BME280;9738;51.654;14.238;2022-07-12T08:28:51;101195.22;;;24.24;40.56
19210;BME280;9738;51.654;14.238;2022-07-12T08:31:17;101203.38;;;24.31;41.58
19210;BME280;9738;51.654;14.238;2022-07-12T08:33:42;101194.75;;;24.34;38.66
19210;BME280;9738;51.654;14.238;2022-07-12T08:36:09;101195.00;;;24.26;38.62
19210;BME280;9738;51.654;14.238;2022-07-12T08:38:35;101195.88;;;24.20;37.50
19210;BME280;9738;51.654;14.238;2022-07-12T08:41:05;101204.75;;;24.15;36.43
19210;BME280;9738;51.654;14.238;2022-07-12T08:43:34;101193.38;;;24.18;37.51
19210;BME280;9738;51.654;14.238;2022-07-12T08:48:29;101194.28;;;24.12;36.85
19210;BME280;9738;51.654;14.238;2022-07-12T08:51:07;101202.53;;;24.31;36.40
19210;BME280;9738;51.654;14.238;2022-07-12T08:53:33;101197.63;;;24.64;37.90
19210;BME280;9738;51.654;14.238;2022-07-12T08:56:01;101196.81;;;24.82;35.93
19210;BME280;9738;51.654;14.238;2022-07-12T08:58:27;101193.16;;;24.88;34.23
19210;BME280;9738;51.654;14.238;2022-07-12T09:00:53;101200.22;;;24.96;34.95
19210;BME280;9738;51.654;14.238;2022-07-12T09:03:19;101196.81;;;25.00;33.92
19210;BME280;9738;51.654;14.238;2022-07-12T09:05:54;101192.56;;;25.04;34.15
19210;BME280;9738;51.654;14.238;2022-07-12T09:08:29;101182.91;;;25.02;36.01
19210;BME280;9738;51.654;14.238;2022-07-12T09:11:01;101189.00;;;25.22;34.27
19210;BME280;9738;51.654;14.238;2022-07-12T09:13:52;101185.03;;;25.18;33.73
19210;BME280;9738;51.654;14.238;2022-07-12T09:16:20;101189.81;;;25.23;32.52
19210;BME280;9738;51.654;14.238;2022-07-12T09:18:47;101188.50;;;25.25;33.29
19210;BME280;9738;51.654;14.238;2022-07-12T09:21:27;101183.28;;;25.24;33.40
19210;BME280;9738;51.654;14.238;2022-07-12T09:23:55;101178.06;;;25.22;33.00
19210;BME280;9738;51.654;14.238;2022-07-12T09:26:22;101178.34;;;25.32;33.90
19210;BME280;9738;51.654;14.238;2022-07-12T09:28:51;101172.94;;;25.56;32.21
19210;BME280;9738;51.654;14.238;2022-07-12T09:31:18;101166.22;;;25.70;32.64
19210;BME280;9738;51.654;14.238;2022-07-12T09:33:59;101165.97;;;26.02;34.11
19210;BME280;9738;51.654;14.238;2022-07-12T09:36:57;101168.03;;;26.30;32.43
19210;BME280;9738;51.654;14.238;2022-07-12T09:39:23;101173.75;;;26.40;31.80
19210;BME280;9738;51.654;14.238;2022-07-12T09:41:53;101169.59;;;26.49;32.64
19210;BME280;9738;51.654;14.238;2022-07-12T09:44:20;101180.44;;;26.56;31.48
19210;BME280;9738;51.654;14.238;2022-07-12T09:46:47;101171.72;;;26.35;31.01
19210;BME280;9738;51.654;14.238;2022-07-12T09:49:13;101171.34;;;26.20;31.48
19210;BME280;9738;51.654;14.238;2022-07-12T09:51:41;101181.69;;;26.18;31.69
19210;BME280;9738;51.654;14.238;2022-07-12T09:54:08;101176.59;;;26.10;30.41
19210;BME280;9738;51.654;14.238;2022-07-12T09:56:38;101171.81;;;26.05;31.33
19210;BME280;9738;51.654;14.238;2022-07-12T09:59:08;101167.53;;;26.09;31.03
19210;BME280;9738;51.654;14.238;2022-07-12T10:01:37;101170.97;;;26.05;31.20
19210;BME280;9738;51.654;14.238;2022-07-12T10:04:03;101166.47;;;26.10;32.80
19210;BME280;9738;51.654;14.238;2022-07-12T10:06:30;101173.13;;;26.14;32.43
19210;BME280;9738;51.654;14.238;2022-07-12T10:08:57;101169.91;;;26.18;33.23
19210;BME280;9738;51.654;14.238;2022-07-12T10:11:23;101168.84;;;26.30;31.77
19210;BME280;9738;51.654;14.238;2022-07-12T10:13:50;101170.50;;;26.20;30.54
19210;BME280;9738;51.654;14.238;2022-07-12T10:16:25;101161.84;;;26.34;31.15
19210;BME280;9738;51.654;14.238;2022-07-12T10:19:21;101164.22;;;26.31;31.41
19210;BME280;9738;51.654;14.238;2022-07-12T10:21:48;101159.69;;;26.36;32.08
19210;BME280;9738;51.654;14.238;2022-07-12T10:29:40;101153.97;;;26.73;31.09
19210;BME280;9738;51.654;14.238;2022-07-12T10:32:26;101160.44;;;26.55;30.83
19210;BME280;9738;51.654;14.238;2022-07-12T10:34:58;101162.47;;;26.60;31.29
19210;BME280;9738;51.654;14.238;2022-07-12T10:37:25;101158.50;;;26.79;31.50
19210;BME280;9738;51.654;14.238;2022-07-12T10:40:16;101149.88;;;26.99;30.77
19210;BME280;9738;51.654;14.238;2022-07-12T10:45:36;101167.97;;;27.12;29.68
19210;BME280;9738;51.654;14.238;2022-07-12T10:48:06;101170.34;;;27.08;29.58
19210;BME280;9738;51.654;14.238;2022-07-12T10:53:34;101165.03;;;26.31;30.75
19210;BME280;9738;51.654;14.238;2022-07-12T10:56:24;101163.00;;;26.27;32.34
19210;BME280;9738;51.654;14.238;2022-07-12T10:58:53;101153.13;;;26.37;32.15
19210;BME280;9738;51.654;14.238;2022-07-12T11:01:22;101154.06;;;26.20;30.63
19210;BME280;9738;51.654;14.238;2022-07-12T11:03:50;101154.31;;;26.18;30.11
19210;BME280;9738;51.654;14.238;2022-07-12T11:06:18;101152.56;;;26.47;30.12
19210;BME280;9738;51.654;14.238;2022-07-12T11:08:54;101144.44;;;26.76;31.81
19210;BME280;9738;51.654;14.238;2022-07-12T11:11:23;101155.53;;;26.69;29.94
19210;BME280;9738;51.654;14.238;2022-07-12T11:13:49;101155.19;;;26.42;29.66
19210;BME280;9738;51.654;14.238;2022-07-12T11:16:15;101154.44;;;26.11;30.25
19210;BME280;9738;51.654;14.238;2022-07-12T11:18:43;101150.63;;;26.12;32.50
19210;BME280;9738;51.654;14.238;2022-07-12T11:21:10;101158.59;;;26.37;31.28
19210;BME280;9738;51.654;14.238;2022-07-12T11:23:36;101154.94;;;26.67;30.54
19210;BME280;9738;51.654;14.238;2022-07-12T11:26:03;101154.53;;;26.87;30.35
19210;BME280;9738;51.654;14.238;2022-07-12T11:28:30;101150.94;;;26.98;28.88
19210;BME280;9738;51.654;14.238;2022-07-12T11:31:07;101162.50;;;27.00;29.86
19210;BME280;9738;51.654;14.238;2022-07-12T11:33:36;101158.34;;;26.98;29.39
19210;BME280;9738;51.654;14.238;2022-07-12T11:36:08;101157.72;;;26.95;28.67
19210;BME280;9738;51.654;14.238;2022-07-12T11:38:37;101165.38;;;26.82;29.65
19210;BME280;9738;51.654;14.238;2022-07-12T11:41:04;101159.81;;;26.65;28.43
19210;BME280;9738;51.654;14.238;2022-07-12T11:43:32;101154.31;;;26.65;28.63
19210;BME280;9738;51.654;14.238;2022-07-12T11:45:58;101159.22;;;26.75;28.63
19210;BME280;9738;51.654;14.238;2022-07-12T11:48:25;101164.00;;;26.67;27.53
19210;BME280;9738;51.654;14.238;2022-07-12T11:50:52;101164.38;;;26.59;28.30
19210;BME280;9738;51.654;14.238;2022-07-12T11:53:23;101151.59;;;26.65;29.14
19210;BME280;9738;51.654;14.238;2022-07-12T11:55:54;101160.41;;;26.67;29.13
19210;BME280;9738;51.654;14.238;2022-07-12T11:58:25;101168.75;;;26.60;28.36
19210;BME280;9738;51.654;14.238;2022-07-12T12:00:52;101165.66;;;26.57;28.84
19210;BME280;9738;51.654;14.238;2022-07-12T12:03:19;101168.28;;;26.40;28.85
19210;BME280;9738;51.654;14.238;2022-07-12T12:05:47;101174.78;;;26.27;29.34
19210;BME280;9738;51.654;14.238;2022-07-12T12:08:13;101164.09;;;26.37;29.83
19210;BME280;9738;51.654;14.238;2022-07-12T12:10:41;101170.69;;;26.48;30.03
19210;BME280;9738;51.654;14.238;2022-07-12T12:13:14;101158.59;;;26.37;28.27
19210;BME280;9738;51.654;14.238;2022-07-12T12:15:48;101168.53;;;26.50;30.04
19210;BME280;9738;51.654;14.238;2022-07-12T12:18:16;101160.91;;;26.40;28.48
19210;BME280;9738;51.654;14.238;2022-07-12T12:20:42;101155.44;;;26.40;28.21
19210;BME280;9738;51.654;14.238;2022-07-12T12:23:19;101148.63;;;26.43;30.34
19210;BME280;9738;51.654;14.238;2022-07-12T12:25:45;101147.78;;;26.66;30.09
19210;BME280;9738;51.654;14.238;2022-07-12T12:28:12;101145.50;;;26.86;29.42
19210;BME280;9738;51.654;14.238;2022-07-12T12:30:55;101145.69;;;26.97;30.25
19210;BME280;9738;51.654;14.238;2022-07-12T12:33:36;101138.56;;;26.84;27.72
19210;BME280;9738;51.654;14.238;2022-07-12T12:38:58;101137.81;;;27.00;27.95
19210;BME280;9738;51.654;14.238;2022-07-12T12:41:29;101136.22;;;27.16;28.72
19210;BME280;9738;51.654;14.238;2022-07-12T12:44:00;101123.75;;;27.37;28.00
19210;BME280;9738;51.654;14.238;2022-07-12T12:46:45;101135.41;;;27.44;28.60
19210;BME280;9738;51.654;14.238;2022-07-12T12:49:12;101136.91;;;27.52;27.28
19210;BME280;9738;51.654;14.238;2022-07-12T12:51:51;101125.63;;;27.65;28.46
19210;BME280;9738;51.654;14.238;2022-07-12T12:54:34;101125.06;;;27.80;26.61
19210;BME280;9738;51.654;14.238;2022-07-12T12:57:00;101125.38;;;27.66;26.56
19210;BME280;9738;51.654;14.238;2022-07-12T12:59:27;101129.41;;;27.47;27.22
19210;BME280;9738;51.654;14.238;2022-07-12T13:01:53;101126.19;;;27.21;28.14
19210;BME280;9738;51.654;14.238;2022-07-12T13:04:19;101128.16;;;27.09;26.93
19210;BME280;9738;51.654;14.238;2022-07-12T13:06:45;101127.16;;;27.15;27.04